sensor_id;sensor_type;location;lat;lon;timestamp;temperature;humidity
21335;DHT22;69435;52.670;13.544;2023-09-19T00:01:12;20.10;69.50
21335;DHT22;69435;52.670;13.544;2023-09-19T00:03:59;20.00;69.50
21335;DHT22;69435;52.670;13.544;2023-09-19T00:06:46;20.00;69.60
21335;DHT22;69435;52.670;13.544;2023-09-19T00:09:33;20.00;69.60
21335;DHT22;69435;52.670;13.544;2023-09-19T00:12:22;20.00;69.80
21335;DHT22;69435;52.670;13.544;2023-09-19T00:15:09;20.00;69.80
21335;DHT22;69435;52.670;13.544;2023-09-19T00:17:56;20.00;69.70
21335;DHT22;69435;52.670;13.544;2023-09-19T00:20:42;19.90;69.80
21335;DHT22;69435;52.670;13.544;2023-09-19T00:23:28;19.90;69.80
21335;DHT22;69435;52.670;13.544;2023-09-19T00:26:15;19.90;69.60
21335;DHT22;69435;52.670;13.544;2023-09-19T00:29:01;19.90;69.50
21335;DHT22;69435;52.670;13.544;2023-09-19T00:31:53;19.90;69.50
21335;DHT22;69435;52.670;13.544;2023-09-19T00:34:40;19.90;69.50
21335;DHT22;69435;52.670;13.544;2023-09-19T00:37:26;19.80;69.50
21335;DHT22;69435;52.670;13.544;2023-09-19T00:40:12;19.80;69.60
21335;DHT22;69435;52.670;13.544;2023-09-19T00:42:58;19.80;69.80
21335;DHT22;69435;52.670;13.544;2023-09-19T00:45:49;19.70;69.70
21335;DHT22;69435;52.670;13.544;2023-09-19T00:48:40;19.70;69.70
21335;DHT22;69435;52.670;13.544;2023-09-19T00:51:29;19.70;69.60
21335;DHT22;69435;52.670;13.544;2023-09-19T00:54:16;19.70;69.60
21335;DHT22;69435;52.670;13.544;2023-09-19T00:57:04;19.70;69.50
21335;DHT22;69435;52.670;13.544;2023-09-19T00:59:51;19.70;69.50
21335;DHT22;69435;52.670;13.544;2023-09-19T01:02:41;19.70;69.60
21335;DHT22;69435;52.670;13.544;2023-09-19T01:05:30;19.60;69.60
21335;DHT22;69435;52.670;13.544;2023-09-19T01:08:16;19.60;69.80
21335;DHT22;69435;52.670;13.544;2023-09-19T01:11:26;19.60;69.80
21335;DHT22;69435;52.670;13.544;2023-09-19T01:14:34;19.60;69.70
21335;DHT22;69435;52.670;13.544;2023-09-19T01:17:40;19.60;69.80
21335;DHT22;69435;52.670;13.544;2023-09-19T01:24:21;19.50;70.10
21335;DHT22;69435;52.670;13.544;2023-09-19T01:30:21;19.40;70.20
21335;DHT22;69435;52.670;13.544;2023-09-19T01:33:10;19.40;70.20
21335;DHT22;69435;52.670;13.544;2023-09-19T01:35:56;19.40;70.40
21335;DHT22;69435;52.670;13.544;2023-09-19T01:38:43;19.40;70.50
21335;DHT22;69435;52.670;13.544;2023-09-19T01:41:57;19.40;70.30
21335;DHT22;69435;52.670;13.544;2023-09-19T01:45:03;19.40;70.00
21335;DHT22;69435;52.670;13.544;2023-09-19T01:47:56;19.30;70.30
21335;DHT22;69435;52.670;13.544;2023-09-19T01:51:00;19.40;70.50
21335;DHT22;69435;52.670;13.544;2023-09-19T01:54:08;19.40;71.40
21335;DHT22;69435;52.670;13.544;2023-09-19T01:59:59;19.40;70.50
21335;DHT22;69435;52.670;13.544;2023-09-19T02:02:52;19.50;70.40
21335;DHT22;69435;52.670;13.544;2023-09-19T02:05:41;19.50;70.50
21335;DHT22;69435;52.670;13.544;2023-09-19T02:08:34;19.50;70.40
21335;DHT22;69435;52.670;13.544;2023-09-19T02:11:21;19.50;70.20
21335;DHT22;69435;52.670;13.544;2023-09-19T02:14:07;19.50;70.20
21335;DHT22;69435;52.670;13.544;2023-09-19T02:16:54;19.40;70.00
21335;DHT22;69435;52.670;13.544;2023-09-19T02:19:40;19.40;69.90
21335;DHT22;69435;52.670;13.544;2023-09-19T02:22:27;19.40;69.80
21335;DHT22;69435;52.670;13.544;2023-09-19T02:25:13;19.40;69.80
21335;DHT22;69435;52.670;13.544;2023-09-19T02:27:59;19.30;69.90
21335;DHT22;69435;52.670;13.544;2023-09-19T02:30:50;19.40;70.10
21335;DHT22;69435;52.670;13.544;2023-09-19T02:33:36;19.30;70.10
21335;DHT22;69435;52.670;13.544;2023-09-19T02:36:22;19.30;70.20
21335;DHT22;69435;52.670;13.544;2023-09-19T02:39:09;19.30;70.30
21335;DHT22;69435;52.670;13.544;2023-09-19T02:41:56;19.20;70.20
21335;DHT22;69435;52.670;13.544;2023-09-19T02:44:42;19.20;70.30
21335;DHT22;69435;52.670;13.544;2023-09-19T02:47:28;19.20;70.40
21335;DHT22;69435;52.670;13.544;2023-09-19T02:50:16;19.20;70.40
21335;DHT22;69435;52.670;13.544;2023-09-19T02:53:03;19.20;70.40
21335;DHT22;69435;52.670;13.544;2023-09-19T02:55:50;19.20;70.40
21335;DHT22;69435;52.670;13.544;2023-09-19T02:58:39;19.10;70.50
21335;DHT22;69435;52.670;13.544;2023-09-19T03:01:27;19.10;70.30
21335;DHT22;69435;52.670;13.544;2023-09-19T03:04:14;19.10;70.40
21335;DHT22;69435;52.670;13.544;2023-09-19T03:07:05;19.10;70.40
21335;DHT22;69435;52.670;13.544;2023-09-19T03:09:51;19.10;70.40
21335;DHT22;69435;52.670;13.544;2023-09-19T03:12:38;19.00;70.20
21335;DHT22;69435;52.670;13.544;2023-09-19T03:15:26;19.00;70.30
21335;DHT22;69435;52.670;13.544;2023-09-19T03:18:11;19.00;70.50
21335;DHT22;69435;52.670;13.544;2023-09-19T03:20:58;18.90;70.50
21335;DHT22;69435;52.670;13.544;2023-09-19T03:23:47;19.00;70.70
21335;DHT22;69435;52.670;13.544;2023-09-19T03:26:33;18.90;70.90
21335;DHT22;69435;52.670;13.544;2023-09-19T03:29:19;18.90;70.90
21335;DHT22;69435;52.670;13.544;2023-09-19T03:32:05;18.90;71.10
21335;DHT22;69435;52.670;13.544;2023-09-19T03:34:51;18.90;71.20
21335;DHT22;69435;52.670;13.544;2023-09-19T03:37:37;18.80;71.30
21335;DHT22;69435;52.670;13.544;2023-09-19T03:40:24;18.90;71.40
21335;DHT22;69435;52.670;13.544;2023-09-19T03:43:11;18.80;71.30
21335;DHT22;69435;52.670;13.544;2023-09-19T03:46:00;18.80;71.30
21335;DHT22;69435;52.670;13.544;2023-09-19T03:48:48;18.90;71.40
21335;DHT22;69435;52.670;13.544;2023-09-19T03:51:34;18.80;71.20
21335;DHT22;69435;52.670;13.544;2023-09-19T03:54:20;18.80;71.10
21335;DHT22;69435;52.670;13.544;2023-09-19T03:57:06;18.80;71.00
21335;DHT22;69435;52.670;13.544;2023-09-19T03:59:52;18.80;70.70
21335;DHT22;69435;52.670;13.544;2023-09-19T04:02:39;18.70;70.50
21335;DHT22;69435;52.670;13.544;2023-09-19T04:05:25;18.70;70.30
21335;DHT22;69435;52.670;13.544;2023-09-19T04:08:11;18.70;69.80
21335;DHT22;69435;52.670;13.544;2023-09-19T04:10:57;18.70;69.50
21335;DHT22;69435;52.670;13.544;2023-09-19T04:13:43;18.70;69.20
21335;DHT22;69435;52.670;13.544;2023-09-19T04:16:29;18.70;68.90
21335;DHT22;69435;52.670;13.544;2023-09-19T04:19:15;18.60;68.50
21335;DHT22;69435;52.670;13.544;2023-09-19T04:22:01;18.70;68.40
21335;DHT22;69435;52.670;13.544;2023-09-19T04:24:47;18.60;68.10
21335;DHT22;69435;52.670;13.544;2023-09-19T04:27:33;18.60;67.90
21335;DHT22;69435;52.670;13.544;2023-09-19T04:30:19;18.60;67.80
21335;DHT22;69435;52.670;13.544;2023-09-19T04:33:07;18.60;67.60
21335;DHT22;69435;52.670;13.544;2023-09-19T04:35:53;18.50;67.50
21335;DHT22;69435;52.670;13.544;2023-09-19T04:38:39;18.60;67.30
21335;DHT22;69435;52.670;13.544;2023-09-19T04:41:25;18.50;67.10
21335;DHT22;69435;52.670;13.544;2023-09-19T04:44:11;18.40;66.90
21335;DHT22;69435;52.670;13.544;2023-09-19T04:46:59;18.40;66.90
21335;DHT22;69435;52.670;13.544;2023-09-19T04:49:45;18.40;66.80
21335;DHT22;69435;52.670;13.544;2023-09-19T04:52:32;18.40;66.60
21335;DHT22;69435;52.670;13.544;2023-09-19T04:55:18;18.30;66.70
21335;DHT22;69435;52.670;13.544;2023-09-19T04:58:05;18.20;66.70
21335;DHT22;69435;52.670;13.544;2023-09-19T05:00:51;18.20;66.60
21335;DHT22;69435;52.670;13.544;2023-09-19T05:03:37;18.20;66.50
21335;DHT22;69435;52.670;13.544;2023-09-19T05:06:23;18.20;66.40
21335;DHT22;69435;52.670;13.544;2023-09-19T05:09:12;18.30;66.40
21335;DHT22;69435;52.670;13.544;2023-09-19T05:11:59;18.30;66.30
21335;DHT22;69435;52.670;13.544;2023-09-19T05:14:45;18.20;66.10
21335;DHT22;69435;52.670;13.544;2023-09-19T05:17:31;18.20;66.00
21335;DHT22;69435;52.670;13.544;2023-09-19T05:20:17;18.20;65.90
21335;DHT22;69435;52.670;13.544;2023-09-19T05:23:16;18.20;65.80
21335;DHT22;69435;52.670;13.544;2023-09-19T05:26:02;18.20;65.80
21335;DHT22;69435;52.670;13.544;2023-09-19T05:28:49;18.20;65.80
21335;DHT22;69435;52.670;13.544;2023-09-19T05:31:35;18.10;65.70
21335;DHT22;69435;52.670;13.544;2023-09-19T05:34:26;18.10;65.60
21335;DHT22;69435;52.670;13.544;2023-09-19T05:37:15;18.10;65.60
21335;DHT22;69435;52.670;13.544;2023-09-19T05:40:02;18.10;65.70
21335;DHT22;69435;52.670;13.544;2023-09-19T05:42:52;18.10;65.60
21335;DHT22;69435;52.670;13.544;2023-09-19T05:45:38;18.10;65.70
21335;DHT22;69435;52.670;13.544;2023-09-19T05:48:26;18.00;65.60
21335;DHT22;69435;52.670;13.544;2023-09-19T05:51:13;18.10;65.60
21335;DHT22;69435;52.670;13.544;2023-09-19T05:53:59;18.00;65.40
21335;DHT22;69435;52.670;13.544;2023-09-19T05:56:45;18.00;65.40
21335;DHT22;69435;52.670;13.544;2023-09-19T05:59:32;18.00;65.30
21335;DHT22;69435;52.670;13.544;2023-09-19T06:02:19;18.00;65.30
21335;DHT22;69435;52.670;13.544;2023-09-19T06:05:06;18.00;65.20
21335;DHT22;69435;52.670;13.544;2023-09-19T06:07:56;18.00;65.10
21335;DHT22;69435;52.670;13.544;2023-09-19T06:10:46;18.10;65.30
21335;DHT22;69435;52.670;13.544;2023-09-19T06:13:32;18.20;65.20
21335;DHT22;69435;52.670;13.544;2023-09-19T06:16:19;18.20;65.00
21335;DHT22;69435;52.670;13.544;2023-09-19T06:19:05;18.20;65.20
21335;DHT22;69435;52.670;13.544;2023-09-19T06:21:54;18.30;65.20
21335;DHT22;69435;52.670;13.544;2023-09-19T06:24:40;18.40;64.90
21335;DHT22;69435;52.670;13.544;2023-09-19T06:27:26;18.50;64.60
21335;DHT22;69435;52.670;13.544;2023-09-19T06:30:13;18.60;64.40
21335;DHT22;69435;52.670;13.544;2023-09-19T06:33:00;18.70;64.00
21335;DHT22;69435;52.670;13.544;2023-09-19T06:35:46;18.70;63.70
21335;DHT22;69435;52.670;13.544;2023-09-19T06:38:34;18.80;63.40
21335;DHT22;69435;52.670;13.544;2023-09-19T06:41:21;18.90;63.20
21335;DHT22;69435;52.670;13.544;2023-09-19T06:44:10;19.10;62.80
21335;DHT22;69435;52.670;13.544;2023-09-19T06:46:56;19.20;62.80
21335;DHT22;69435;52.670;13.544;2023-09-19T06:49:42;19.60;62.20
21335;DHT22;69435;52.670;13.544;2023-09-19T06:52:29;20.10;61.00
21335;DHT22;69435;52.670;13.544;2023-09-19T06:55:16;20.80;59.90
21335;DHT22;69435;52.670;13.544;2023-09-19T06:58:05;21.50;58.00
21335;DHT22;69435;52.670;13.544;2023-09-19T07:00:51;22.10;55.60
21335;DHT22;69435;52.670;13.544;2023-09-19T07:03:37;22.30;53.80
21335;DHT22;69435;52.670;13.544;2023-09-19T07:06:23;22.50;54.40
21335;DHT22;69435;52.670;13.544;2023-09-19T07:09:09;22.70;53.80
21335;DHT22;69435;52.670;13.544;2023-09-19T07:11:55;23.00;52.30
21335;DHT22;69435;52.670;13.544;2023-09-19T07:14:41;23.40;51.80
21335;DHT22;69435;52.670;13.544;2023-09-19T07:17:27;23.80;49.40
21335;DHT22;69435;52.670;13.544;2023-09-19T07:20:15;24.10;48.80
21335;DHT22;69435;52.670;13.544;2023-09-19T07:23:02;24.20;48.50
21335;DHT22;69435;52.670;13.544;2023-09-19T07:25:48;24.20;48.20
21335;DHT22;69435;52.670;13.544;2023-09-19T07:28:34;24.20;47.90
21335;DHT22;69435;52.670;13.544;2023-09-19T07:31:22;24.10;46.80
21335;DHT22;69435;52.670;13.544;2023-09-19T07:34:08;23.90;48.20
21335;DHT22;69435;52.670;13.544;2023-09-19T07:36:55;23.70;48.50
21335;DHT22;69435;52.670;13.544;2023-09-19T07:39:42;23.50;48.50
21335;DHT22;69435;52.670;13.544;2023-09-19T07:42:29;23.40;48.60
21335;DHT22;69435;52.670;13.544;2023-09-19T07:45:14;23.40;48.60
21335;DHT22;69435;52.670;13.544;2023-09-19T07:48:02;23.30;47.40
21335;DHT22;69435;52.670;13.544;2023-09-19T07:50:51;23.30;48.70
21335;DHT22;69435;52.670;13.544;2023-09-19T07:53:37;23.30;48.00
21335;DHT22;69435;52.670;13.544;2023-09-19T07:56:24;23.30;47.50
21335;DHT22;69435;52.670;13.544;2023-09-19T07:59:11;23.10;46.50
21335;DHT22;69435;52.670;13.544;2023-09-19T08:01:57;22.90;46.80
21335;DHT22;69435;52.670;13.544;2023-09-19T08:04:44;22.60;46.70
21335;DHT22;69435;52.670;13.544;2023-09-19T08:07:34;22.50;47.00
21335;DHT22;69435;52.670;13.544;2023-09-19T08:10:22;22.60;47.70
21335;DHT22;69435;52.670;13.544;2023-09-19T08:13:08;22.80;46.10
21335;DHT22;69435;52.670;13.544;2023-09-19T08:15:59;22.80;46.50
21335;DHT22;69435;52.670;13.544;2023-09-19T08:18:49;22.90;45.60
21335;DHT22;69435;52.670;13.544;2023-09-19T08:21:38;22.80;44.80
21335;DHT22;69435;52.670;13.544;2023-09-19T08:24:25;22.70;45.20
21335;DHT22;69435;52.670;13.544;2023-09-19T08:27:14;22.70;46.20
21335;DHT22;69435;52.670;13.544;2023-09-19T08:30:01;22.60;45.70
21335;DHT22;69435;52.670;13.544;2023-09-19T08:32:48;22.50;46.10
21335;DHT22;69435;52.670;13.544;2023-09-19T08:35:35;22.50;46.10
21335;DHT22;69435;52.670;13.544;2023-09-19T08:38:21;22.50;46.20
21335;DHT22;69435;52.670;13.544;2023-09-19T08:41:08;22.70;45.20
21335;DHT22;69435;52.670;13.544;2023-09-19T08:43:54;22.80;44.30
21335;DHT22;69435;52.670;13.544;2023-09-19T08:46:48;22.90;44.50
21335;DHT22;69435;52.670;13.544;2023-09-19T08:50:02;23.10;45.70
21335;DHT22;69435;52.670;13.544;2023-09-19T08:53:01;23.50;45.00
21335;DHT22;69435;52.670;13.544;2023-09-19T08:55:56;24.10;43.20
21335;DHT22;69435;52.670;13.544;2023-09-19T08:58:50;24.30;42.30
21335;DHT22;69435;52.670;13.544;2023-09-19T09:01:40;24.60;41.00
21335;DHT22;69435;52.670;13.544;2023-09-19T09:04:27;24.70;40.60
21335;DHT22;69435;52.670;13.544;2023-09-19T09:07:14;24.80;41.10
21335;DHT22;69435;52.670;13.544;2023-09-19T09:10:03;25.10;40.60
21335;DHT22;69435;52.670;13.544;2023-09-19T09:12:53;25.50;39.70
21335;DHT22;69435;52.670;13.544;2023-09-19T09:15:41;25.70;39.20
21335;DHT22;69435;52.670;13.544;2023-09-19T09:18:30;25.70;37.90
21335;DHT22;69435;52.670;13.544;2023-09-19T09:21:16;25.60;39.50
21335;DHT22;69435;52.670;13.544;2023-09-19T09:24:29;25.60;38.30
21335;DHT22;69435;52.670;13.544;2023-09-19T09:27:16;25.80;37.50
21335;DHT22;69435;52.670;13.544;2023-09-19T09:30:03;25.80;36.80
21335;DHT22;69435;52.670;13.544;2023-09-19T09:33:10;25.80;36.50
21335;DHT22;69435;52.670;13.544;2023-09-19T09:35:59;25.90;36.90
21335;DHT22;69435;52.670;13.544;2023-09-19T09:38:47;25.70;37.00
21335;DHT22;69435;52.670;13.544;2023-09-19T09:41:41;25.50;37.20
21335;DHT22;69435;52.670;13.544;2023-09-19T09:44:27;25.30;38.00
21335;DHT22;69435;52.670;13.544;2023-09-19T09:47:43;25.00;37.80
21335;DHT22;69435;52.670;13.544;2023-09-19T09:50:48;24.70;39.40
21335;DHT22;69435;52.670;13.544;2023-09-19T09:53:34;24.60;40.50
21335;DHT22;69435;52.670;13.544;2023-09-19T09:56:22;24.80;41.50
21335;DHT22;69435;52.670;13.544;2023-09-19T09:59:08;25.10;38.50
21335;DHT22;69435;52.670;13.544;2023-09-19T10:01:54;25.20;37.60
21335;DHT22;69435;52.670;13.544;2023-09-19T10:04:42;25.10;36.90
21335;DHT22;69435;52.670;13.544;2023-09-19T10:07:37;24.80;37.20
21335;DHT22;69435;52.670;13.544;2023-09-19T10:10:38;24.60;37.90
21335;DHT22;69435;52.670;13.544;2023-09-19T10:13:30;24.50;37.60
21335;DHT22;69435;52.670;13.544;2023-09-19T10:16:18;24.40;37.30
21335;DHT22;69435;52.670;13.544;2023-09-19T10:19:07;24.50;39.40
21335;DHT22;69435;52.670;13.544;2023-09-19T10:21:55;24.80;39.10
21335;DHT22;69435;52.670;13.544;2023-09-19T10:24:43;25.10;37.60
21335;DHT22;69435;52.670;13.544;2023-09-19T10:27:32;25.40;36.80
21335;DHT22;69435;52.670;13.544;2023-09-19T10:30:24;25.50;35.70
21335;DHT22;69435;52.670;13.544;2023-09-19T10:33:12;25.40;36.50
21335;DHT22;69435;52.670;13.544;2023-09-19T10:36:00;25.20;37.60
21335;DHT22;69435;52.670;13.544;2023-09-19T10:38:48;25.10;37.30
21335;DHT22;69435;52.670;13.544;2023-09-19T10:41:36;24.90;37.10
21335;DHT22;69435;52.670;13.544;2023-09-19T10:44:26;24.70;37.50
21335;DHT22;69435;52.670;13.544;2023-09-19T10:47:12;24.60;37.30
21335;DHT22;69435;52.670;13.544;2023-09-19T10:49:59;24.60;37.50
21335;DHT22;69435;52.670;13.544;2023-09-19T10:52:46;24.80;35.80
21335;DHT22;69435;52.670;13.544;2023-09-19T10:55:36;25.00;35.60
21335;DHT22;69435;52.670;13.544;2023-09-19T10:58:27;25.00;35.10
21335;DHT22;69435;52.670;13.544;2023-09-19T11:01:20;25.10;35.50
21335;DHT22;69435;52.670;13.544;2023-09-19T11:04:35;24.90;34.80
21335;DHT22;69435;52.670;13.544;2023-09-19T11:07:22;24.80;35.20
21335;DHT22;69435;52.670;13.544;2023-09-19T11:10:44;24.70;34.60
21335;DHT22;69435;52.670;13.544;2023-09-19T11:13:34;24.80;35.80
21335;DHT22;69435;52.670;13.544;2023-09-19T11:16:22;24.90;34.90
21335;DHT22;69435;52.670;13.544;2023-09-19T11:19:09;25.10;34.10
21335;DHT22;69435;52.670;13.544;2023-09-19T11:21:56;25.30;34.30
21335;DHT22;69435;52.670;13.544;2023-09-19T11:24:43;25.30;34.40
21335;DHT22;69435;52.670;13.544;2023-09-19T11:27:31;25.40;34.60
21335;DHT22;69435;52.670;13.544;2023-09-19T11:30:26;25.50;33.20
21335;DHT22;69435;52.670;13.544;2023-09-19T11:33:23;25.50;33.50
21335;DHT22;69435;52.670;13.544;2023-09-19T11:36:35;25.50;33.60
21335;DHT22;69435;52.670;13.544;2023-09-19T11:39:25;25.40;33.00
21335;DHT22;69435;52.670;13.544;2023-09-19T11:42:47;25.30;34.50
21335;DHT22;69435;52.670;13.544;2023-09-19T11:48:35;25.30;34.80
21335;DHT22;69435;52.670;13.544;2023-09-19T11:51:25;25.30;32.50
21335;DHT22;69435;52.670;13.544;2023-09-19T11:54:14;25.10;33.30
21335;DHT22;69435;52.670;13.544;2023-09-19T11:57:04;24.90;33.90
21335;DHT22;69435;52.670;13.544;2023-09-19T11:59:51;24.80;34.20
21335;DHT22;69435;52.670;13.544;2023-09-19T12:02:39;24.70;35.00
21335;DHT22;69435;52.670;13.544;2023-09-19T12:05:32;24.70;33.70
21335;DHT22;69435;52.670;13.544;2023-09-19T12:08:19;24.70;33.10
21335;DHT22;69435;52.670;13.544;2023-09-19T12:11:06;24.60;34.60
21335;DHT22;69435;52.670;13.544;2023-09-19T12:13:56;24.50;33.30
21335;DHT22;69435;52.670;13.544;2023-09-19T12:16:54;24.40;33.60
21335;DHT22;69435;52.670;13.544;2023-09-19T12:19:50;24.30;34.00
21335;DHT22;69435;52.670;13.544;2023-09-19T12:22:42;24.20;33.80
21335;DHT22;69435;52.670;13.544;2023-09-19T12:25:42;24.10;33.80
21335;DHT22;69435;52.670;13.544;2023-09-19T12:28:41;24.10;34.40
21335;DHT22;69435;52.670;13.544;2023-09-19T12:31:28;24.00;34.70
21335;DHT22;69435;52.670;13.544;2023-09-19T12:34:37;23.90;33.90
21335;DHT22;69435;52.670;13.544;2023-09-19T12:37:27;24.00;34.70
21335;DHT22;69435;52.670;13.544;2023-09-19T12:40:15;24.00;35.10
21335;DHT22;69435;52.670;13.544;2023-09-19T12:43:03;24.20;37.00
21335;DHT22;69435;52.670;13.544;2023-09-19T12:45:50;24.30;34.60
21335;DHT22;69435;52.670;13.544;2023-09-19T12:48:38;24.40;33.00
21335;DHT22;69435;52.670;13.544;2023-09-19T12:51:35;24.30;32.70
21335;DHT22;69435;52.670;13.544;2023-09-19T12:54:22;24.20;34.20
21335;DHT22;69435;52.670;13.544;2023-09-19T12:57:08;24.20;34.00
21335;DHT22;69435;52.670;13.544;2023-09-19T12:59:55;24.20;34.60
21335;DHT22;69435;52.670;13.544;2023-09-19T13:06:14;24.10;34.60
21335;DHT22;69435;52.670;13.544;2023-09-19T13:09:09;24.10;34.00
21335;DHT22;69435;52.670;13.544;2023-09-19T13:11:56;24.20;33.70
21335;DHT22;69435;52.670;13.544;2023-09-19T13:14:45;24.00;33.10
21335;DHT22;69435;52.670;13.544;2023-09-19T13:17:46;23.90;33.50
21335;DHT22;69435;52.670;13.544;2023-09-19T13:20:34;23.80;33.80
21335;DHT22;69435;52.670;13.544;2023-09-19T13:23:28;23.60;33.80
21335;DHT22;69435;52.670;13.544;2023-09-19T13:26:14;23.50;34.00
21335;DHT22;69435;52.670;13.544;2023-09-19T13:29:01;23.40;34.50
21335;DHT22;69435;52.670;13.544;2023-09-19T13:31:52;23.40;34.50
21335;DHT22;69435;52.670;13.544;2023-09-19T13:34:41;23.30;34.80
21335;DHT22;69435;52.670;13.544;2023-09-19T13:37:27;23.30;34.40
21335;DHT22;69435;52.670;13.544;2023-09-19T13:40:14;23.20;35.50
21335;DHT22;69435;52.670;13.544;2023-09-19T13:43:01;23.10;34.70
21335;DHT22;69435;52.670;13.544;2023-09-19T13:45:47;23.10;34.90
21335;DHT22;69435;52.670;13.544;2023-09-19T13:48:33;23.00;35.40
21335;DHT22;69435;52.670;13.544;2023-09-19T13:51:21;22.90;35.20
21335;DHT22;69435;52.670;13.544;2023-09-19T13:54:11;22.90;36.50
21335;DHT22;69435;52.670;13.544;2023-09-19T13:57:00;22.90;36.30
21335;DHT22;69435;52.670;13.544;2023-09-19T13:59:46;22.90;36.20
21335;DHT22;69435;52.670;13.544;2023-09-19T14:02:33;22.90;34.80
21335;DHT22;69435;52.670;13.544;2023-09-19T14:05:19;22.80;36.00
21335;DHT22;69435;52.670;13.544;2023-09-19T14:08:06;22.80;35.80
21335;DHT22;69435;52.670;13.544;2023-09-19T14:10:52;22.80;35.80
21335;DHT22;69435;52.670;13.544;2023-09-19T14:13:39;22.70;35.20
21335;DHT22;69435;52.670;13.544;2023-09-19T14:16:25;22.60;36.60
21335;DHT22;69435;52.670;13.544;2023-09-19T14:19:15;22.60;36.30
21335;DHT22;69435;52.670;13.544;2023-09-19T14:22:02;22.60;36.60
21335;DHT22;69435;52.670;13.544;2023-09-19T14:24:53;22.60;36.60
21335;DHT22;69435;52.670;13.544;2023-09-19T14:27:39;22.60;36.30
21335;DHT22;69435;52.670;13.544;2023-09-19T14:30:25;22.60;37.00
21335;DHT22;69435;52.670;13.544;2023-09-19T14:33:12;22.60;36.40
21335;DHT22;69435;52.670;13.544;2023-09-19T14:35:58;22.60;36.30
21335;DHT22;69435;52.670;13.544;2023-09-19T14:38:44;22.50;36.90
21335;DHT22;69435;52.670;13.544;2023-09-19T14:41:30;22.50;36.40
21335;DHT22;69435;52.670;13.544;2023-09-19T14:44:16;22.50;36.60
21335;DHT22;69435;52.670;13.544;2023-09-19T14:47:03;22.50;37.20
21335;DHT22;69435;52.670;13.544;2023-09-19T14:49:52;22.50;36.20
21335;DHT22;69435;52.670;13.544;2023-09-19T14:52:38;22.40;37.00
21335;DHT22;69435;52.670;13.544;2023-09-19T14:55:25;22.40;36.80
21335;DHT22;69435;52.670;13.544;2023-09-19T14:58:13;22.40;37.30
21335;DHT22;69435;52.670;13.544;2023-09-19T15:01:04;22.40;37.00
21335;DHT22;69435;52.670;13.544;2023-09-19T15:03:59;22.30;37.50
21335;DHT22;69435;52.670;13.544;2023-09-19T15:06:46;22.30;37.20
21335;DHT22;69435;52.670;13.544;2023-09-19T15:09:34;22.20;37.50
21335;DHT22;69435;52.670;13.544;2023-09-19T15:12:21;22.20;37.70
21335;DHT22;69435;52.670;13.544;2023-09-19T15:15:07;22.20;37.80
21335;DHT22;69435;52.670;13.544;2023-09-19T15:17:54;22.20;37.90
21335;DHT22;69435;52.670;13.544;2023-09-19T15:20:44;22.20;38.50
21335;DHT22;69435;52.670;13.544;2023-09-19T15:23:31;22.20;38.30
21335;DHT22;69435;52.670;13.544;2023-09-19T15:26:19;22.20;38.20
21335;DHT22;69435;52.670;13.544;2023-09-19T15:29:11;22.10;38.10
21335;DHT22;69435;52.670;13.544;2023-09-19T15:31:57;22.10;38.00
21335;DHT22;69435;52.670;13.544;2023-09-19T15:34:47;22.00;38.20
21335;DHT22;69435;52.670;13.544;2023-09-19T15:37:33;22.00;38.60
21335;DHT22;69435;52.670;13.544;2023-09-19T15:40:19;22.00;38.90
21335;DHT22;69435;52.670;13.544;2023-09-19T15:43:05;21.90;38.40
21335;DHT22;69435;52.670;13.544;2023-09-19T15:45:51;21.90;38.70
21335;DHT22;69435;52.670;13.544;2023-09-19T15:48:37;21.90;38.90
21335;DHT22;69435;52.670;13.544;2023-09-19T15:51:24;21.90;39.20
21335;DHT22;69435;52.670;13.544;2023-09-19T15:54:14;21.80;38.70
21335;DHT22;69435;52.670;13.544;2023-09-19T15:57:01;21.70;38.80
21335;DHT22;69435;52.670;13.544;2023-09-19T15:59:46;21.70;39.40
21335;DHT22;69435;52.670;13.544;2023-09-19T16:02:32;21.60;39.90
21335;DHT22;69435;52.670;13.544;2023-09-19T16:05:18;21.60;39.90
21335;DHT22;69435;52.670;13.544;2023-09-19T16:08:06;21.60;40.20
21335;DHT22;69435;52.670;13.544;2023-09-19T16:10:53;21.60;40.00
21335;DHT22;69435;52.670;13.544;2023-09-19T16:13:40;21.50;39.90
21335;DHT22;69435;52.670;13.544;2023-09-19T16:16:28;21.40;39.90
21335;DHT22;69435;52.670;13.544;2023-09-19T16:19:16;21.40;39.70
21335;DHT22;69435;52.670;13.544;2023-09-19T16:22:02;21.40;40.10
21335;DHT22;69435;52.670;13.544;2023-09-19T16:24:48;21.30;40.40
21335;DHT22;69435;52.670;13.544;2023-09-19T16:27:34;21.30;40.50
21335;DHT22;69435;52.670;13.544;2023-09-19T16:30:21;21.20;40.30
21335;DHT22;69435;52.670;13.544;2023-09-19T16:33:07;21.20;40.90
21335;DHT22;69435;52.670;13.544;2023-09-19T16:35:53;21.10;41.40
21335;DHT22;69435;52.670;13.544;2023-09-19T16:38:40;21.10;40.80
21335;DHT22;69435;52.670;13.544;2023-09-19T16:41:27;21.00;41.30
21335;DHT22;69435;52.670;13.544;2023-09-19T16:44:13;20.90;41.50
21335;DHT22;69435;52.670;13.544;2023-09-19T16:47:00;20.80;41.80
21335;DHT22;69435;52.670;13.544;2023-09-19T16:49:48;20.70;41.30
21335;DHT22;69435;52.670;13.544;2023-09-19T16:52:34;20.70;41.50
21335;DHT22;69435;52.670;13.544;2023-09-19T16:55:20;20.60;41.40
21335;DHT22;69435;52.670;13.544;2023-09-19T16:58:06;20.50;41.50
21335;DHT22;69435;52.670;13.544;2023-09-19T17:00:53;20.40;42.10
21335;DHT22;69435;52.670;13.544;2023-09-19T17:03:40;20.30;42.30
21335;DHT22;69435;52.670;13.544;2023-09-19T17:06:26;20.20;42.30
21335;DHT22;69435;52.670;13.544;2023-09-19T17:09:12;20.10;42.60
21335;DHT22;69435;52.670;13.544;2023-09-19T17:12:01;20.00;43.10
21335;DHT22;69435;52.670;13.544;2023-09-19T17:14:51;20.00;44.00
21335;DHT22;69435;52.670;13.544;2023-09-19T17:17:38;19.90;43.90
21335;DHT22;69435;52.670;13.544;2023-09-19T17:20:25;19.80;44.60
21335;DHT22;69435;52.670;13.544;2023-09-19T17:23:12;19.70;45.30
21335;DHT22;69435;52.670;13.544;2023-09-19T17:26:13;19.60;46.50
21335;DHT22;69435;52.670;13.544;2023-09-19T17:29:00;19.60;47.00
21335;DHT22;69435;52.670;13.544;2023-09-19T17:31:46;19.40;48.00
21335;DHT22;69435;52.670;13.544;2023-09-19T17:34:32;19.30;48.50
21335;DHT22;69435;52.670;13.544;2023-09-19T17:37:18;19.20;48.50
21335;DHT22;69435;52.670;13.544;2023-09-19T17:40:07;19.10;49.00
21335;DHT22;69435;52.670;13.544;2023-09-19T17:42:56;19.00;49.50
21335;DHT22;69435;52.670;13.544;2023-09-19T17:45:42;18.90;49.70